sensor_id;sensor_type;location;lat;lon;timestamp;P1;durP1;ratioP1;P2;durP2;ratioP2
1665;SDS011;831;48.308;14.294;2022-07-04T00:00:22;17.90;;;17.00;;
1665;SDS011;831;48.308;14.294;2022-07-04T00:02:49;17.57;;;16.73;;
1665;SDS011;831;48.308;14.294;2022-07-04T00:05:16;17.97;;;16.83;;
1665;SDS011;831;48.308;14.294;2022-07-04T00:07:44;18.00;;;17.10;;
1665;SDS011;831;48.308;14.294;2022-07-04T00:10:13;18.10;;;17.27;;
1665;SDS011;831;48.308;14.294;2022-07-04T00:12:40;17.80;;;16.90;;
1665;SDS011;831;48.308;14.294;2022-07-04T00:15:07;18.10;;;17.00;;
1665;SDS011;831;48.308;14.294;2022-07-04T00:17:34;17.97;;;17.07;;
1665;SDS011;831;48.308;14.294;2022-07-04T00:20:00;17.27;;;16.47;;
1665;SDS011;831;48.308;14.294;2022-07-04T00:22:27;17.67;;;16.67;;
1665;SDS011;831;48.308;14.294;2022-07-04T00:24:54;17.63;;;16.73;;
1665;SDS011;831;48.308;14.294;2022-07-04T00:27:22;17.97;;;17.10;;
1665;SDS011;831;48.308;14.294;2022-07-04T00:29:49;18.00;;;17.10;;
1665;SDS011;831;48.308;14.294;2022-07-04T00:32:16;17.37;;;16.47;;
1665;SDS011;831;48.308;14.294;2022-07-04T00:34:43;17.67;;;16.77;;
1665;SDS011;831;48.308;14.294;2022-07-04T00:37:09;18.00;;;17.10;;
1665;SDS011;831;48.308;14.294;2022-07-04T00:39:36;17.50;;;16.60;;
1665;SDS011;831;48.308;14.294;2022-07-04T00:42:03;17.77;;;16.87;;
1665;SDS011;831;48.308;14.294;2022-07-04T00:44:31;18.87;;;17.90;;
1665;SDS011;831;48.308;14.294;2022-07-04T00:47:00;18.50;;;17.50;;
1665;SDS011;831;48.308;14.294;2022-07-04T00:49:27;17.80;;;16.80;;
1665;SDS011;831;48.308;14.294;2022-07-04T00:51:53;17.57;;;16.67;;
1665;SDS011;831;48.308;14.294;2022-07-04T00:54:20;18.30;;;17.30;;
1665;SDS011;831;48.308;14.294;2022-07-04T00:56:51;18.03;;;17.10;;
1665;SDS011;831;48.308;14.294;2022-07-04T00:59:19;18.63;;;17.73;;
1665;SDS011;831;48.308;14.294;2022-07-04T01:01:47;17.40;;;16.60;;
1665;SDS011;831;48.308;14.294;2022-07-04T01:04:13;17.43;;;16.50;;
1665;SDS011;831;48.308;14.294;2022-07-04T01:06:40;17.93;;;17.03;;
1665;SDS011;831;48.308;14.294;2022-07-04T01:09:07;18.00;;;17.10;;
1665;SDS011;831;48.308;14.294;2022-07-04T01:11:33;18.23;;;17.23;;
1665;SDS011;831;48.308;14.294;2022-07-04T01:14:00;17.67;;;16.67;;
1665;SDS011;831;48.308;14.294;2022-07-04T01:16:27;17.53;;;16.67;;
1665;SDS011;831;48.308;14.294;2022-07-04T01:18:55;18.33;;;17.33;;
1665;SDS011;831;48.308;14.294;2022-07-04T01:21:23;18.13;;;17.20;;
1665;SDS011;831;48.308;14.294;2022-07-04T01:23:50;18.07;;;17.00;;
1665;SDS011;831;48.308;14.294;2022-07-04T01:26:17;18.03;;;17.23;;
1665;SDS011;831;48.308;14.294;2022-07-04T01:28:43;17.93;;;16.93;;
1665;SDS011;831;48.308;14.294;2022-07-04T01:31:10;17.63;;;16.73;;
1665;SDS011;831;48.308;14.294;2022-07-04T01:33:37;17.77;;;16.77;;
1665;SDS011;831;48.308;14.294;2022-07-04T01:36:04;18.17;;;17.27;;
1665;SDS011;831;48.308;14.294;2022-07-04T01:38:32;17.70;;;16.90;;
1665;SDS011;831;48.308;14.294;2022-07-04T01:40:59;18.20;;;17.20;;
1665;SDS011;831;48.308;14.294;2022-07-04T01:43:25;18.93;;;17.93;;
1665;SDS011;831;48.308;14.294;2022-07-04T01:45:52;18.63;;;17.60;;
1665;SDS011;831;48.308;14.294;2022-07-04T01:48:18;18.77;;;17.77;;
1665;SDS011;831;48.308;14.294;2022-07-04T01:50:45;19.17;;;17.97;;
1665;SDS011;831;48.308;14.294;2022-07-04T01:53:12;18.77;;;17.87;;
1665;SDS011;831;48.308;14.294;2022-07-04T01:55:40;19.60;;;18.43;;
1665;SDS011;831;48.308;14.294;2022-07-04T01:58:06;19.30;;;18.20;;
1665;SDS011;831;48.308;14.294;2022-07-04T02:00:33;18.43;;;17.43;;
1665;SDS011;831;48.308;14.294;2022-07-04T02:03:31;19.27;;;18.00;;
1665;SDS011;831;48.308;14.294;2022-07-04T02:05:58;18.53;;;17.50;;
1665;SDS011;831;48.308;14.294;2022-07-04T02:08:24;18.93;;;17.83;;
1665;SDS011;831;48.308;14.294;2022-07-04T02:11:13;19.40;;;18.40;;
1665;SDS011;831;48.308;14.294;2022-07-04T02:13:39;19.10;;;18.10;;
1665;SDS011;831;48.308;14.294;2022-07-04T02:16:05;18.60;;;17.60;;
1665;SDS011;831;48.308;14.294;2022-07-04T02:18:31;19.63;;;18.43;;
1665;SDS011;831;48.308;14.294;2022-07-04T02:20:58;19.63;;;18.20;;
1665;SDS011;831;48.308;14.294;2022-07-04T02:23:25;19.13;;;18.13;;
1665;SDS011;831;48.308;14.294;2022-07-04T02:25:51;19.90;;;18.70;;
1665;SDS011;831;48.308;14.294;2022-07-04T02:28:19;19.43;;;18.43;;
1665;SDS011;831;48.308;14.294;2022-07-04T02:30:46;19.37;;;18.30;;
1665;SDS011;831;48.308;14.294;2022-07-04T02:33:12;19.27;;;18.20;;
1665;SDS011;831;48.308;14.294;2022-07-04T02:35:39;19.70;;;18.60;;
1665;SDS011;831;48.308;14.294;2022-07-04T02:38:06;19.60;;;18.60;;
1665;SDS011;831;48.308;14.294;2022-07-04T02:40:32;19.67;;;18.67;;
1665;SDS011;831;48.308;14.294;2022-07-04T02:42:59;18.70;;;17.70;;
1665;SDS011;831;48.308;14.294;2022-07-04T02:45:27;19.43;;;18.33;;
1665;SDS011;831;48.308;14.294;2022-07-04T02:47:53;19.83;;;18.73;;
1665;SDS011;831;48.308;14.294;2022-07-04T02:50:20;18.90;;;17.90;;
1665;SDS011;831;48.308;14.294;2022-07-04T02:52:46;18.80;;;17.70;;
1665;SDS011;831;48.308;14.294;2022-07-04T02:55:13;19.33;;;18.23;;
1665;SDS011;831;48.308;14.294;2022-07-04T02:57:39;20.00;;;19.00;;
1665;SDS011;831;48.308;14.294;2022-07-04T03:00:07;20.03;;;18.73;;
1665;SDS011;831;48.308;14.294;2022-07-04T03:02:35;18.80;;;17.70;;
1665;SDS011;831;48.308;14.294;2022-07-04T03:05:01;19.10;;;18.00;;
1665;SDS011;831;48.308;14.294;2022-07-04T03:07:28;19.50;;;18.50;;
1665;SDS011;831;48.308;14.294;2022-07-04T03:09:54;20.20;;;19.10;;
1665;SDS011;831;48.308;14.294;2022-07-04T03:12:21;19.53;;;18.33;;
1665;SDS011;831;48.308;14.294;2022-07-04T03:14:48;20.27;;;19.20;;
1665;SDS011;831;48.308;14.294;2022-07-04T03:17:14;20.40;;;19.17;;
1665;SDS011;831;48.308;14.294;2022-07-04T03:19:42;19.50;;;18.40;;
1665;SDS011;831;48.308;14.294;2022-07-04T03:22:09;18.53;;;17.43;;
1665;SDS011;831;48.308;14.294;2022-07-04T03:24:35;19.30;;;18.30;;
1665;SDS011;831;48.308;14.294;2022-07-04T03:27:02;19.43;;;18.40;;
1665;SDS011;831;48.308;14.294;2022-07-04T03:29:29;19.90;;;18.80;;
1665;SDS011;831;48.308;14.294;2022-07-04T03:31:55;19.40;;;18.40;;
1665;SDS011;831;48.308;14.294;2022-07-04T03:34:22;19.37;;;18.37;;
1665;SDS011;831;48.308;14.294;2022-07-04T03:36:50;19.53;;;18.43;;
1665;SDS011;831;48.308;14.294;2022-07-04T03:39:17;20.63;;;19.43;;
1665;SDS011;831;48.308;14.294;2022-07-04T03:41:43;20.47;;;19.30;;
1665;SDS011;831;48.308;14.294;2022-07-04T03:44:10;21.40;;;20.30;;
1665;SDS011;831;48.308;14.294;2022-07-04T03:46:36;22.20;;;21.00;;
1665;SDS011;831;48.308;14.294;2022-07-04T03:49:03;20.23;;;19.13;;
1665;SDS011;831;48.308;14.294;2022-07-04T03:51:29;20.03;;;18.93;;
1665;SDS011;831;48.308;14.294;2022-07-04T03:53:57;21.40;;;20.20;;
1665;SDS011;831;48.308;14.294;2022-07-04T03:56:24;21.93;;;20.63;;
1665;SDS011;831;48.308;14.294;2022-07-04T03:58:51;22.40;;;21.00;;
1665;SDS011;831;48.308;14.294;2022-07-04T04:01:18;22.27;;;21.07;;
1665;SDS011;831;48.308;14.294;2022-07-04T04:03:44;21.93;;;20.73;;
1665;SDS011;831;48.308;14.294;2022-07-04T04:06:28;23.30;;;21.90;;
1665;SDS011;831;48.308;14.294;2022-07-04T04:08:55;22.70;;;21.40;;
1665;SDS011;831;48.308;14.294;2022-07-04T04:11:23;23.70;;;22.33;;
1665;SDS011;831;48.308;14.294;2022-07-04T04:13:50;24.50;;;23.00;;
1665;SDS011;831;48.308;14.294;2022-07-04T04:16:16;24.93;;;23.43;;
1665;SDS011;831;48.308;14.294;2022-07-04T04:18:43;23.70;;;22.20;;
1665;SDS011;831;48.308;14.294;2022-07-04T04:21:09;23.40;;;22.00;;
1665;SDS011;831;48.308;14.294;2022-07-04T04:23:36;23.40;;;22.00;;
1665;SDS011;831;48.308;14.294;2022-07-04T04:26:02;25.23;;;23.73;;
1665;SDS011;831;48.308;14.294;2022-07-04T04:28:31;25.33;;;23.77;;
1665;SDS011;831;48.308;14.294;2022-07-04T04:30:57;23.87;;;22.47;;
1665;SDS011;831;48.308;14.294;2022-07-04T04:33:24;24.30;;;22.90;;
1665;SDS011;831;48.308;14.294;2022-07-04T04:35:50;25.37;;;23.77;;
1665;SDS011;831;48.308;14.294;2022-07-04T04:38:17;24.80;;;23.20;;
1665;SDS011;831;48.308;14.294;2022-07-04T04:40:43;24.50;;;23.10;;
1665;SDS011;831;48.308;14.294;2022-07-04T04:43:10;25.13;;;23.43;;
1665;SDS011;831;48.308;14.294;2022-07-04T04:45:38;24.47;;;23.07;;
1665;SDS011;831;48.308;14.294;2022-07-04T04:48:05;25.13;;;23.53;;
1665;SDS011;831;48.308;14.294;2022-07-04T04:50:31;26.67;;;25.07;;
1665;SDS011;831;48.308;14.294;2022-07-04T04:52:58;25.47;;;23.87;;
1665;SDS011;831;48.308;14.294;2022-07-04T04:55:25;25.30;;;23.70;;
1665;SDS011;831;48.308;14.294;2022-07-04T04:57:51;25.90;;;24.03;;
1665;SDS011;831;48.308;14.294;2022-07-04T05:00:18;26.50;;;24.70;;
1665;SDS011;831;48.308;14.294;2022-07-04T05:02:46;23.90;;;22.50;;
1665;SDS011;831;48.308;14.294;2022-07-04T05:05:12;24.43;;;22.73;;
1665;SDS011;831;48.308;14.294;2022-07-04T05:07:39;26.03;;;24.53;;
1665;SDS011;831;48.308;14.294;2022-07-04T05:10:06;25.70;;;24.17;;
1665;SDS011;831;48.308;14.294;2022-07-04T05:12:33;23.33;;;21.83;;
1665;SDS011;831;48.308;14.294;2022-07-04T05:15:00;25.37;;;24.00;;
1665;SDS011;831;48.308;14.294;2022-07-04T05:17:27;23.80;;;22.20;;
1665;SDS011;831;48.308;14.294;2022-07-04T05:19:55;24.30;;;22.80;;
1665;SDS011;831;48.308;14.294;2022-07-04T05:22:21;24.90;;;23.30;;
1665;SDS011;831;48.308;14.294;2022-07-04T05:24:48;25.13;;;23.50;;
1665;SDS011;831;48.308;14.294;2022-07-04T05:27:14;25.00;;;23.47;;
1665;SDS011;831;48.308;14.294;2022-07-04T05:29:41;25.70;;;24.13;;
1665;SDS011;831;48.308;14.294;2022-07-04T05:32:08;25.43;;;24.03;;
1665;SDS011;831;48.308;14.294;2022-07-04T05:34:34;25.37;;;23.87;;
1665;SDS011;831;48.308;14.294;2022-07-04T05:37:03;24.47;;;22.90;;
1665;SDS011;831;48.308;14.294;2022-07-04T05:39:29;24.40;;;23.00;;
1665;SDS011;831;48.308;14.294;2022-07-04T05:41:57;24.27;;;22.57;;
1665;SDS011;831;48.308;14.294;2022-07-04T05:44:23;24.30;;;22.90;;
1665;SDS011;831;48.308;14.294;2022-07-04T05:46:50;23.50;;;21.87;;
1665;SDS011;831;48.308;14.294;2022-07-04T05:49:16;24.17;;;22.67;;
1665;SDS011;831;48.308;14.294;2022-07-04T05:51:43;25.10;;;23.60;;
1665;SDS011;831;48.308;14.294;2022-07-04T05:54:11;26.33;;;24.73;;
1665;SDS011;831;48.308;14.294;2022-07-04T05:56:38;24.80;;;23.40;;
1665;SDS011;831;48.308;14.294;2022-07-04T05:59:07;23.10;;;21.80;;
1665;SDS011;831;48.308;14.294;2022-07-04T06:01:33;24.40;;;23.10;;
1665;SDS011;831;48.308;14.294;2022-07-04T06:04:00;23.13;;;21.73;;
1665;SDS011;831;48.308;14.294;2022-07-04T06:06:26;24.93;;;23.47;;
1665;SDS011;831;48.308;14.294;2022-07-04T06:08:53;24.40;;;23.10;;
1665;SDS011;831;48.308;14.294;2022-07-04T06:11:21;23.37;;;22.07;;
1665;SDS011;831;48.308;14.294;2022-07-04T06:13:48;23.17;;;21.87;;
1665;SDS011;831;48.308;14.294;2022-07-04T06:16:15;24.60;;;23.10;;
1665;SDS011;831;48.308;14.294;2022-07-04T06:18:41;25.27;;;23.83;;
1665;SDS011;831;48.308;14.294;2022-07-04T06:21:08;22.80;;;21.47;;
1665;SDS011;831;48.308;14.294;2022-07-04T06:23:35;22.17;;;20.87;;
1665;SDS011;831;48.308;14.294;2022-07-04T06:26:02;24.50;;;22.90;;
1665;SDS011;831;48.308;14.294;2022-07-04T06:28:32;23.77;;;22.37;;
1665;SDS011;831;48.308;14.294;2022-07-04T06:31:04;24.07;;;22.67;;
1665;SDS011;831;48.308;14.294;2022-07-04T06:33:30;23.93;;;22.53;;
1665;SDS011;831;48.308;14.294;2022-07-04T06:35:57;23.80;;;21.90;;
1665;SDS011;831;48.308;14.294;2022-07-04T06:38:24;24.50;;;22.87;;
1665;SDS011;831;48.308;14.294;2022-07-04T06:40:52;25.37;;;23.20;;
1665;SDS011;831;48.308;14.294;2022-07-04T06:43:20;23.93;;;22.23;;
1665;SDS011;831;48.308;14.294;2022-07-04T06:45:48;24.73;;;22.90;;
1665;SDS011;831;48.308;14.294;2022-07-04T06:48:14;24.37;;;22.87;;
1665;SDS011;831;48.308;14.294;2022-07-04T06:50:41;23.50;;;22.10;;
1665;SDS011;831;48.308;14.294;2022-07-04T06:53:08;23.70;;;22.30;;
1665;SDS011;831;48.308;14.294;2022-07-04T06:55:35;25.23;;;23.73;;
1665;SDS011;831;48.308;14.294;2022-07-04T06:58:02;23.27;;;21.77;;
1665;SDS011;831;48.308;14.294;2022-07-04T07:00:29;25.17;;;23.70;;
1665;SDS011;831;48.308;14.294;2022-07-04T07:02:57;24.33;;;22.90;;
1665;SDS011;831;48.308;14.294;2022-07-04T07:05:24;24.80;;;23.40;;
1665;SDS011;831;48.308;14.294;2022-07-04T07:07:51;26.07;;;24.43;;
1665;SDS011;831;48.308;14.294;2022-07-04T07:10:17;25.77;;;24.30;;
1665;SDS011;831;48.308;14.294;2022-07-04T07:12:44;24.60;;;23.00;;
1665;SDS011;831;48.308;14.294;2022-07-04T07:15:11;24.17;;;22.67;;
1665;SDS011;831;48.308;14.294;2022-07-04T07:17:38;25.70;;;23.90;;
1665;SDS011;831;48.308;14.294;2022-07-04T07:20:07;24.63;;;23.03;;
1665;SDS011;831;48.308;14.294;2022-07-04T07:22:34;23.87;;;22.53;;
1665;SDS011;831;48.308;14.294;2022-07-04T07:25:00;25.90;;;24.30;;
1665;SDS011;831;48.308;14.294;2022-07-04T07:27:27;26.07;;;24.47;;
1665;SDS011;831;48.308;14.294;2022-07-04T07:29:53;25.87;;;24.27;;
1665;SDS011;831;48.308;14.294;2022-07-04T07:32:20;27.40;;;25.77;;
1665;SDS011;831;48.308;14.294;2022-07-04T07:34:46;26.77;;;25.13;;
1665;SDS011;831;48.308;14.294;2022-07-04T07:37:14;29.23;;;27.63;;
1665;SDS011;831;48.308;14.294;2022-07-04T07:39:42;25.93;;;24.23;;
1665;SDS011;831;48.308;14.294;2022-07-04T07:42:09;27.00;;;25.20;;
1665;SDS011;831;48.308;14.294;2022-07-04T07:44:35;24.70;;;23.20;;
1665;SDS011;831;48.308;14.294;2022-07-04T07:47:02;24.20;;;22.90;;
1665;SDS011;831;48.308;14.294;2022-07-04T07:49:29;23.83;;;22.43;;
1665;SDS011;831;48.308;14.294;2022-07-04T07:51:55;23.60;;;22.20;;
1665;SDS011;831;48.308;14.294;2022-07-04T07:54:23;22.87;;;21.67;;
1665;SDS011;831;48.308;14.294;2022-07-04T07:56:50;22.97;;;21.57;;
1665;SDS011;831;48.308;14.294;2022-07-04T07:59:17;23.00;;;21.60;;
1665;SDS011;831;48.308;14.294;2022-07-04T08:01:43;22.20;;;21.00;;
1665;SDS011;831;48.308;14.294;2022-07-04T08:04:10;22.57;;;21.37;;
1665;SDS011;831;48.308;14.294;2022-07-04T08:06:54;23.03;;;21.33;;
1665;SDS011;831;48.308;14.294;2022-07-04T08:09:20;21.77;;;20.43;;
1665;SDS011;831;48.308;14.294;2022-07-04T08:11:49;20.23;;;19.10;;
1665;SDS011;831;48.308;14.294;2022-07-04T08:14:15;19.50;;;18.57;;
1665;SDS011;831;48.308;14.294;2022-07-04T08:16:42;19.40;;;18.43;;
1665;SDS011;831;48.308;14.294;2022-07-04T08:19:08;20.37;;;19.10;;
1665;SDS011;831;48.308;14.294;2022-07-04T08:21:35;18.23;;;17.33;;
1665;SDS011;831;48.308;14.294;2022-07-04T08:24:02;18.00;;;17.10;;
1665;SDS011;831;48.308;14.294;2022-07-04T08:26:28;16.43;;;15.63;;
1665;SDS011;831;48.308;14.294;2022-07-04T08:28:56;15.97;;;15.17;;
1665;SDS011;831;48.308;14.294;2022-07-04T08:31:24;16.67;;;15.73;;
1665;SDS011;831;48.308;14.294;2022-07-04T08:33:51;15.70;;;14.90;;
1665;SDS011;831;48.308;14.294;2022-07-04T08:36:18;14.97;;;14.27;;
1665;SDS011;831;48.308;14.294;2022-07-04T08:38:44;13.40;;;12.80;;
1665;SDS011;831;48.308;14.294;2022-07-04T08:41:11;13.13;;;12.43;;
1665;SDS011;831;48.308;14.294;2022-07-04T08:43:38;13.30;;;12.70;;
1665;SDS011;831;48.308;14.294;2022-07-04T08:46:06;13.27;;;12.57;;
1665;SDS011;831;48.308;14.294;2022-07-04T08:48:37;13.40;;;12.63;;
1665;SDS011;831;48.308;14.294;2022-07-04T08:51:04;11.63;;;11.13;;
1665;SDS011;831;48.308;14.294;2022-07-04T08:53:36;11.63;;;11.13;;
1665;SDS011;831;48.308;14.294;2022-07-04T08:56:04;11.60;;;11.10;;
1665;SDS011;831;48.308;14.294;2022-07-04T08:58:48;12.10;;;11.57;;
1665;SDS011;831;48.308;14.294;2022-07-04T09:01:17;11.80;;;11.30;;
1665;SDS011;831;48.308;14.294;2022-07-04T09:03:44;11.30;;;10.73;;
1665;SDS011;831;48.308;14.294;2022-07-04T09:06:11;11.57;;;11.07;;
1665;SDS011;831;48.308;14.294;2022-07-04T09:08:38;11.53;;;11.03;;
1665;SDS011;831;48.308;14.294;2022-07-04T09:11:05;11.80;;;11.20;;
1665;SDS011;831;48.308;14.294;2022-07-04T09:13:32;11.90;;;11.30;;
1665;SDS011;831;48.308;14.294;2022-07-04T09:15:59;12.20;;;11.70;;
1665;SDS011;831;48.308;14.294;2022-07-04T09:18:28;12.10;;;11.50;;
1665;SDS011;831;48.308;14.294;2022-07-04T09:20:55;11.83;;;11.33;;
1665;SDS011;831;48.308;14.294;2022-07-04T09:23:23;12.30;;;11.80;;
1665;SDS011;831;48.308;14.294;2022-07-04T09:26:05;12.43;;;11.83;;
1665;SDS011;831;48.308;14.294;2022-07-04T09:28:32;11.90;;;11.40;;
1665;SDS011;831;48.308;14.294;2022-07-04T09:30:59;12.50;;;11.90;;
1665;SDS011;831;48.308;14.294;2022-07-04T09:36:11;11.70;;;11.20;;
1665;SDS011;831;48.308;14.294;2022-07-04T09:38:38;12.07;;;11.47;;
1665;SDS011;831;48.308;14.294;2022-07-04T09:41:05;12.10;;;11.50;;
1665;SDS011;831;48.308;14.294;2022-07-04T09:43:57;12.50;;;11.90;;
1665;SDS011;831;48.308;14.294;2022-07-04T09:46:24;13.23;;;12.53;;
1665;SDS011;831;48.308;14.294;2022-07-04T09:48:51;12.67;;;11.67;;
1665;SDS011;831;48.308;14.294;2022-07-04T09:51:34;12.07;;;11.57;;
1665;SDS011;831;48.308;14.294;2022-07-04T09:54:08;12.10;;;11.60;;
1665;SDS011;831;48.308;14.294;2022-07-04T09:56:41;11.90;;;11.40;;
1665;SDS011;831;48.308;14.294;2022-07-04T09:59:07;12.40;;;11.90;;
1665;SDS011;831;48.308;14.294;2022-07-04T10:01:34;12.60;;;12.00;;
1665;SDS011;831;48.308;14.294;2022-07-04T10:04:01;12.00;;;11.40;;
1665;SDS011;831;48.308;14.294;2022-07-04T10:06:32;11.90;;;11.40;;
1665;SDS011;831;48.308;14.294;2022-07-04T10:09:06;11.87;;;11.37;;
1665;SDS011;831;48.308;14.294;2022-07-04T10:11:33;11.93;;;11.43;;
1665;SDS011;831;48.308;14.294;2022-07-04T10:14:01;11.93;;;11.43;;
1665;SDS011;831;48.308;14.294;2022-07-04T10:16:29;12.30;;;11.70;;
1665;SDS011;831;48.308;14.294;2022-07-04T10:18:56;11.80;;;11.30;;
1665;SDS011;831;48.308;14.294;2022-07-04T10:21:23;11.80;;;11.30;;
1665;SDS011;831;48.308;14.294;2022-07-04T10:23:51;11.80;;;11.30;;
1665;SDS011;831;48.308;14.294;2022-07-04T10:26:18;12.70;;;12.00;;
1665;SDS011;831;48.308;14.294;2022-07-04T10:28:46;11.93;;;11.33;;
1665;SDS011;831;48.308;14.294;2022-07-04T10:31:14;11.87;;;11.27;;
1665;SDS011;831;48.308;14.294;2022-07-04T10:33:41;12.40;;;11.80;;
1665;SDS011;831;48.308;14.294;2022-07-04T10:36:13;12.23;;;11.70;;
1665;SDS011;831;48.308;14.294;2022-07-04T10:38:46;12.50;;;12.00;;
1665;SDS011;831;48.308;14.294;2022-07-04T10:41:14;12.40;;;11.90;;
1665;SDS011;831;48.308;14.294;2022-07-04T10:46:29;13.13;;;12.53;;
1665;SDS011;831;48.308;14.294;2022-07-04T10:48:56;12.30;;;11.80;;
1665;SDS011;831;48.308;14.294;2022-07-04T10:51:33;13.07;;;12.30;;
1665;SDS011;831;48.308;14.294;2022-07-04T10:54:00;12.70;;;12.10;;
1665;SDS011;831;48.308;14.294;2022-07-04T10:56:42;12.30;;;11.80;;
1665;SDS011;831;48.308;14.294;2022-07-04T10:59:10;13.07;;;12.50;;
1665;SDS011;831;48.308;14.294;2022-07-04T11:01:37;12.27;;;11.67;;
1665;SDS011;831;48.308;14.294;2022-07-04T11:04:04;12.43;;;11.83;;
1665;SDS011;831;48.308;14.294;2022-07-04T11:06:49;12.37;;;11.67;;
1665;SDS011;831;48.308;14.294;2022-07-04T11:09:17;12.40;;;11.90;;
1665;SDS011;831;48.308;14.294;2022-07-04T11:11:48;12.27;;;11.67;;
1665;SDS011;831;48.308;14.294;2022-07-04T11:14:31;12.93;;;12.30;;
1665;SDS011;831;48.308;14.294;2022-07-04T11:16:58;12.70;;;12.20;;
1665;SDS011;831;48.308;14.294;2022-07-04T11:19:25;11.70;;;11.13;;
1665;SDS011;831;48.308;14.294;2022-07-04T11:21:53;12.30;;;11.80;;
1665;SDS011;831;48.308;14.294;2022-07-04T11:24:20;13.20;;;12.60;;
1665;SDS011;831;48.308;14.294;2022-07-04T11:26:46;12.00;;;11.50;;
1665;SDS011;831;48.308;14.294;2022-07-04T11:29:15;12.57;;;11.87;;
1665;SDS011;831;48.308;14.294;2022-07-04T11:31:42;12.17;;;11.60;;
1665;SDS011;831;48.308;14.294;2022-07-04T11:34:09;12.13;;;11.63;;
1665;SDS011;831;48.308;14.294;2022-07-04T11:36:37;12.43;;;11.83;;
1665;SDS011;831;48.308;14.294;2022-07-04T11:39:04;12.40;;;11.80;;
1665;SDS011;831;48.308;14.294;2022-07-04T11:41:32;12.70;;;12.17;;
1665;SDS011;831;48.308;14.294;2022-07-04T11:44:18;12.87;;;12.17;;
1665;SDS011;831;48.308;14.294;2022-07-04T11:47:03;12.60;;;12.10;;
1665;SDS011;831;48.308;14.294;2022-07-04T11:49:30;12.83;;;12.03;;
1665;SDS011;831;48.308;14.294;2022-07-04T11:51:56;13.50;;;12.60;;
1665;SDS011;831;48.308;14.294;2022-07-04T11:54:23;12.97;;;12.47;;
1665;SDS011;831;48.308;14.294;2022-07-04T11:56:50;12.33;;;11.83;;
1665;SDS011;831;48.308;14.294;2022-07-04T11:59:18;12.50;;;11.97;;
1665;SDS011;831;48.308;14.294;2022-07-04T12:01:45;12.57;;;11.90;;
1665;SDS011;831;48.308;14.294;2022-07-04T12:04:15;12.83;;;12.23;;
1665;SDS011;831;48.308;14.294;2022-07-04T12:06:42;12.60;;;11.97;;
1665;SDS011;831;48.308;14.294;2022-07-04T12:09:09;12.57;;;11.97;;
1665;SDS011;831;48.308;14.294;2022-07-04T12:11:51;12.43;;;11.83;;
1665;SDS011;831;48.308;14.294;2022-07-04T12:14:20;12.87;;;12.27;;
1665;SDS011;831;48.308;14.294;2022-07-04T12:16:46;12.37;;;11.87;;
1665;SDS011;831;48.308;14.294;2022-07-04T12:19:13;12.40;;;11.60;;
1665;SDS011;831;48.308;14.294;2022-07-04T12:21:41;12.70;;;12.10;;
1665;SDS011;831;48.308;14.294;2022-07-04T12:24:08;12.40;;;11.90;;
1665;SDS011;831;48.308;14.294;2022-07-04T12:26:44;12.13;;;11.63;;
1665;SDS011;831;48.308;14.294;2022-07-04T12:29:11;12.57;;;11.87;;
1665;SDS011;831;48.308;14.294;2022-07-04T12:31:40;12.17;;;11.67;;
1665;SDS011;831;48.308;14.294;2022-07-04T12:34:13;12.80;;;12.20;;
1665;SDS011;831;48.308;14.294;2022-07-04T12:36:47;12.43;;;11.83;;
1665;SDS011;831;48.308;14.294;2022-07-04T12:39:25;12.70;;;12.20;;
1665;SDS011;831;48.308;14.294;2022-07-04T12:42:02;12.73;;;12.13;;
1665;SDS011;831;48.308;14.294;2022-07-04T12:44:29;12.03;;;11.53;;
1665;SDS011;831;48.308;14.294;2022-07-04T12:46:58;12.30;;;11.80;;
1665;SDS011;831;48.308;14.294;2022-07-04T12:49:24;12.90;;;12.30;;
1665;SDS011;831;48.308;14.294;2022-07-04T12:51:51;12.90;;;12.30;;
1665;SDS011;831;48.308;14.294;2022-07-04T12:54:17;12.77;;;12.20;;
1665;SDS011;831;48.308;14.294;2022-07-04T12:56:45;12.67;;;12.07;;
1665;SDS011;831;48.308;14.294;2022-07-04T12:59:13;12.37;;;11.87;;
1665;SDS011;831;48.308;14.294;2022-07-04T13:01:44;13.13;;;12.53;;
1665;SDS011;831;48.308;14.294;2022-07-04T13:04:12;13.00;;;12.30;;
1665;SDS011;831;48.308;14.294;2022-07-04T13:06:39;12.47;;;11.97;;
1665;SDS011;831;48.308;14.294;2022-07-04T13:09:05;13.20;;;12.60;;
1665;SDS011;831;48.308;14.294;2022-07-04T13:11:32;12.57;;;12.07;;
1665;SDS011;831;48.308;14.294;2022-07-04T13:14:17;13.00;;;12.40;;
1665;SDS011;831;48.308;14.294;2022-07-04T13:16:43;13.20;;;12.60;;
1665;SDS011;831;48.308;14.294;2022-07-04T13:19:11;12.90;;;12.30;;
1665;SDS011;831;48.308;14.294;2022-07-04T13:21:38;13.10;;;12.40;;
1665;SDS011;831;48.308;14.294;2022-07-04T13:24:05;12.83;;;12.23;;
1665;SDS011;831;48.308;14.294;2022-07-04T13:26:32;13.10;;;12.50;;
1665;SDS011;831;48.308;14.294;2022-07-04T13:28:58;13.70;;;13.10;;
1665;SDS011;831;48.308;14.294;2022-07-04T13:31:26;12.60;;;12.00;;
1665;SDS011;831;48.308;14.294;2022-07-04T13:33:53;13.10;;;12.50;;
1665;SDS011;831;48.308;14.294;2022-07-04T13:36:21;12.80;;;12.20;;
1665;SDS011;831;48.308;14.294;2022-07-04T13:38:47;13.27;;;12.47;;
1665;SDS011;831;48.308;14.294;2022-07-04T13:41:17;12.63;;;12.03;;
1665;SDS011;831;48.308;14.294;2022-07-04T13:43:44;13.40;;;12.80;;
1665;SDS011;831;48.308;14.294;2022-07-04T13:46:11;13.00;;;12.30;;
1665;SDS011;831;48.308;14.294;2022-07-04T13:48:38;12.80;;;12.27;;
1665;SDS011;831;48.308;14.294;2022-07-04T13:51:04;13.53;;;12.93;;
1665;SDS011;831;48.308;14.294;2022-07-04T13:53:32;12.70;;;12.10;;
1665;SDS011;831;48.308;14.294;2022-07-04T13:56:01;12.57;;;11.97;;
1665;SDS011;831;48.308;14.294;2022-07-04T13:58:28;12.27;;;11.77;;
1665;SDS011;831;48.308;14.294;2022-07-04T14:00:55;12.70;;;12.10;;
1665;SDS011;831;48.308;14.294;2022-07-04T14:03:21;12.20;;;11.60;;
1665;SDS011;831;48.308;14.294;2022-07-04T14:05:48;13.23;;;12.47;;
1665;SDS011;831;48.308;14.294;2022-07-04T14:08:14;13.70;;;13.10;;
1665;SDS011;831;48.308;14.294;2022-07-04T14:10:43;14.00;;;13.40;;
1665;SDS011;831;48.308;14.294;2022-07-04T14:13:09;14.30;;;13.50;;
1665;SDS011;831;48.308;14.294;2022-07-04T14:15:36;13.90;;;13.20;;
1665;SDS011;831;48.308;14.294;2022-07-04T14:18:03;14.20;;;13.60;;
1665;SDS011;831;48.308;14.294;2022-07-04T14:20:32;14.00;;;13.20;;
1665;SDS011;831;48.308;14.294;2022-07-04T14:22:59;14.30;;;13.70;;
1665;SDS011;831;48.308;14.294;2022-07-04T14:25:25;15.13;;;14.40;;
1665;SDS011;831;48.308;14.294;2022-07-04T14:27:53;14.67;;;13.97;;
1665;SDS011;831;48.308;14.294;2022-07-04T14:30:20;15.00;;;14.10;;
1665;SDS011;831;48.308;14.294;2022-07-04T14:32:47;15.40;;;14.70;;
1665;SDS011;831;48.308;14.294;2022-07-04T14:35:13;15.57;;;14.80;;
1665;SDS011;831;48.308;14.294;2022-07-04T14:37:40;15.40;;;14.70;;
1665;SDS011;831;48.308;14.294;2022-07-04T14:40:07;14.70;;;13.90;;
1665;SDS011;831;48.308;14.294;2022-07-04T14:42:34;15.00;;;14.30;;
1665;SDS011;831;48.308;14.294;2022-07-04T14:45:02;15.93;;;15.00;;
1665;SDS011;831;48.308;14.294;2022-07-04T14:47:29;14.97;;;14.23;;
1665;SDS011;831;48.308;14.294;2022-07-04T14:49:57;15.07;;;14.23;;
1665;SDS011;831;48.308;14.294;2022-07-04T14:52:23;15.27;;;14.50;;
1665;SDS011;831;48.308;14.294;2022-07-04T14:54:50;14.87;;;14.17;;
1665;SDS011;831;48.308;14.294;2022-07-04T14:57:16;14.87;;;14.27;;